sensor_id;sensor_type;location;lat;lon;timestamp;P1;durP1;ratioP1;P2;durP2;ratioP2
16101;SDS011;56411;52.964;10.540;2023-12-28T00:02:01;9.40;;;3.60;;
16101;SDS011;56411;52.964;10.540;2023-12-28T00:04:28;10.63;;;3.53;;
16101;SDS011;56411;52.964;10.540;2023-12-28T00:06:57;6.47;;;3.00;;
16101;SDS011;56411;52.964;10.540;2023-12-28T00:09:24;9.13;;;3.27;;
16101;SDS011;56411;52.964;10.540;2023-12-28T00:11:51;6.13;;;3.10;;
16101;SDS011;56411;52.964;10.540;2023-12-28T00:14:18;7.87;;;3.40;;
16101;SDS011;56411;52.964;10.540;2023-12-28T00:16:45;7.83;;;3.20;;
16101;SDS011;56411;52.964;10.540;2023-12-28T00:19:12;7.40;;;3.17;;
16101;SDS011;56411;52.964;10.540;2023-12-28T00:21:39;7.93;;;3.40;;
16101;SDS011;56411;52.964;10.540;2023-12-28T00:24:08;6.07;;;2.90;;
16101;SDS011;56411;52.964;10.540;2023-12-28T00:26:35;7.83;;;3.30;;
16101;SDS011;56411;52.964;10.540;2023-12-28T00:29:02;7.63;;;3.10;;
16101;SDS011;56411;52.964;10.540;2023-12-28T00:31:29;10.37;;;3.47;;
16101;SDS011;56411;52.964;10.540;2023-12-28T00:33:56;5.13;;;2.83;;
16101;SDS011;56411;52.964;10.540;2023-12-28T00:36:23;9.83;;;3.30;;
16101;SDS011;56411;52.964;10.540;2023-12-28T00:38:50;8.27;;;2.90;;
16101;SDS011;56411;52.964;10.540;2023-12-28T00:41:20;9.37;;;2.70;;
16101;SDS011;56411;52.964;10.540;2023-12-28T00:43:47;9.33;;;3.37;;
16101;SDS011;56411;52.964;10.540;2023-12-28T00:46:14;8.47;;;2.70;;
16101;SDS011;56411;52.964;10.540;2023-12-28T00:48:41;7.77;;;2.87;;
16101;SDS011;56411;52.964;10.540;2023-12-28T00:51:08;7.33;;;3.10;;
16101;SDS011;56411;52.964;10.540;2023-12-28T00:53:35;7.23;;;2.60;;
16101;SDS011;56411;52.964;10.540;2023-12-28T00:56:02;5.97;;;2.90;;
16101;SDS011;56411;52.964;10.540;2023-12-28T00:58:31;7.13;;;2.50;;
16101;SDS011;56411;52.964;10.540;2023-12-28T01:00:58;6.37;;;2.60;;
16101;SDS011;56411;52.964;10.540;2023-12-28T01:03:25;6.07;;;2.70;;
16101;SDS011;56411;52.964;10.540;2023-12-28T01:05:52;8.40;;;2.80;;
16101;SDS011;56411;52.964;10.540;2023-12-28T01:08:19;6.80;;;2.70;;
16101;SDS011;56411;52.964;10.540;2023-12-28T01:10:46;6.87;;;2.80;;
16101;SDS011;56411;52.964;10.540;2023-12-28T01:13:14;7.27;;;2.50;;
16101;SDS011;56411;52.964;10.540;2023-12-28T01:15:44;5.70;;;2.73;;
16101;SDS011;56411;52.964;10.540;2023-12-28T01:18:11;6.63;;;2.60;;
16101;SDS011;56411;52.964;10.540;2023-12-28T01:20:38;7.73;;;2.90;;
16101;SDS011;56411;52.964;10.540;2023-12-28T01:23:05;7.70;;;3.00;;
16101;SDS011;56411;52.964;10.540;2023-12-28T01:25:32;8.17;;;2.67;;
16101;SDS011;56411;52.964;10.540;2023-12-28T01:27:59;5.40;;;2.67;;
16101;SDS011;56411;52.964;10.540;2023-12-28T01:30:26;7.40;;;3.33;;
16101;SDS011;56411;52.964;10.540;2023-12-28T01:32:55;5.63;;;2.67;;
16101;SDS011;56411;52.964;10.540;2023-12-28T01:35:21;7.13;;;2.80;;
16101;SDS011;56411;52.964;10.540;2023-12-28T01:37:48;5.37;;;2.70;;
16101;SDS011;56411;52.964;10.540;2023-12-28T01:40:15;7.33;;;2.87;;
16101;SDS011;56411;52.964;10.540;2023-12-28T01:42:42;6.73;;;2.97;;
16101;SDS011;56411;52.964;10.540;2023-12-28T01:45:11;7.57;;;3.17;;
16101;SDS011;56411;52.964;10.540;2023-12-28T01:47:38;8.77;;;2.90;;
16101;SDS011;56411;52.964;10.540;2023-12-28T01:50:08;6.67;;;2.70;;
16101;SDS011;56411;52.964;10.540;2023-12-28T01:52:36;8.13;;;3.20;;
16101;SDS011;56411;52.964;10.540;2023-12-28T01:55:04;7.50;;;2.77;;
16101;SDS011;56411;52.964;10.540;2023-12-28T01:57:32;6.90;;;3.20;;
16101;SDS011;56411;52.964;10.540;2023-12-28T02:00:00;5.27;;;2.60;;
16101;SDS011;56411;52.964;10.540;2023-12-28T02:02:29;7.60;;;2.60;;
16101;SDS011;56411;52.964;10.540;2023-12-28T02:04:57;7.03;;;2.90;;
16101;SDS011;56411;52.964;10.540;2023-12-28T02:07:26;6.83;;;2.70;;
16101;SDS011;56411;52.964;10.540;2023-12-28T02:09:55;8.97;;;2.87;;
16101;SDS011;56411;52.964;10.540;2023-12-28T02:12:22;6.67;;;2.90;;
16101;SDS011;56411;52.964;10.540;2023-12-28T02:14:50;5.93;;;2.60;;
16101;SDS011;56411;52.964;10.540;2023-12-28T02:17:19;7.43;;;2.87;;
16101;SDS011;56411;52.964;10.540;2023-12-28T02:19:53;7.63;;;2.87;;
16101;SDS011;56411;52.964;10.540;2023-12-28T02:22:20;5.87;;;2.83;;
16101;SDS011;56411;52.964;10.540;2023-12-28T02:25:03;7.80;;;2.70;;
16101;SDS011;56411;52.964;10.540;2023-12-28T02:27:32;8.30;;;3.10;;
16101;SDS011;56411;52.964;10.540;2023-12-28T02:30:01;5.83;;;2.90;;
16101;SDS011;56411;52.964;10.540;2023-12-28T02:32:33;8.80;;;2.90;;
16101;SDS011;56411;52.964;10.540;2023-12-28T02:35:09;7.30;;;2.57;;
16101;SDS011;56411;52.964;10.540;2023-12-28T02:37:42;8.63;;;3.13;;
16101;SDS011;56411;52.964;10.540;2023-12-28T02:40:12;6.37;;;2.97;;
16101;SDS011;56411;52.964;10.540;2023-12-28T02:42:41;8.20;;;3.10;;
16101;SDS011;56411;52.964;10.540;2023-12-28T02:45:08;6.20;;;2.60;;
16101;SDS011;56411;52.964;10.540;2023-12-28T02:47:36;8.37;;;2.90;;
16101;SDS011;56411;52.964;10.540;2023-12-28T02:50:03;6.37;;;2.73;;
16101;SDS011;56411;52.964;10.540;2023-12-28T02:52:30;8.43;;;3.77;;
16101;SDS011;56411;52.964;10.540;2023-12-28T02:54:58;7.83;;;3.17;;
16101;SDS011;56411;52.964;10.540;2023-12-28T02:57:26;7.83;;;2.97;;
16101;SDS011;56411;52.964;10.540;2023-12-28T02:59:53;6.23;;;2.77;;
16101;SDS011;56411;52.964;10.540;2023-12-28T03:02:21;6.67;;;2.97;;
16101;SDS011;56411;52.964;10.540;2023-12-28T03:04:49;6.20;;;3.03;;
16101;SDS011;56411;52.964;10.540;2023-12-28T03:07:16;7.47;;;3.20;;
16101;SDS011;56411;52.964;10.540;2023-12-28T03:09:43;5.73;;;3.00;;
16101;SDS011;56411;52.964;10.540;2023-12-28T03:12:10;6.97;;;3.00;;
16101;SDS011;56411;52.964;10.540;2023-12-28T03:14:38;8.27;;;3.30;;
16101;SDS011;56411;52.964;10.540;2023-12-28T03:17:06;5.53;;;3.03;;
16101;SDS011;56411;52.964;10.540;2023-12-28T03:19:33;6.33;;;2.87;;
16101;SDS011;56411;52.964;10.540;2023-12-28T03:22:00;7.47;;;3.40;;
16101;SDS011;56411;52.964;10.540;2023-12-28T03:24:28;7.30;;;3.17;;
16101;SDS011;56411;52.964;10.540;2023-12-28T03:26:55;8.80;;;3.40;;
16101;SDS011;56411;52.964;10.540;2023-12-28T03:29:22;9.13;;;3.40;;
16101;SDS011;56411;52.964;10.540;2023-12-28T03:31:51;7.97;;;3.40;;
16101;SDS011;56411;52.964;10.540;2023-12-28T03:34:18;8.53;;;3.57;;
16101;SDS011;56411;52.964;10.540;2023-12-28T03:36:47;8.00;;;4.00;;
16101;SDS011;56411;52.964;10.540;2023-12-28T03:39:14;7.27;;;3.43;;
16101;SDS011;56411;52.964;10.540;2023-12-28T03:41:41;8.27;;;3.70;;
16101;SDS011;56411;52.964;10.540;2023-12-28T03:44:08;7.63;;;3.70;;
16101;SDS011;56411;52.964;10.540;2023-12-28T03:46:35;9.23;;;3.50;;
16101;SDS011;56411;52.964;10.540;2023-12-28T03:49:03;10.27;;;4.10;;
16101;SDS011;56411;52.964;10.540;2023-12-28T03:51:30;9.20;;;3.90;;
16101;SDS011;56411;52.964;10.540;2023-12-28T03:53:57;8.10;;;3.67;;
16101;SDS011;56411;52.964;10.540;2023-12-28T03:56:25;7.93;;;3.60;;
16101;SDS011;56411;52.964;10.540;2023-12-28T03:58:53;8.00;;;3.47;;
16101;SDS011;56411;52.964;10.540;2023-12-28T04:01:21;8.43;;;3.90;;
16101;SDS011;56411;52.964;10.540;2023-12-28T04:03:48;6.73;;;3.63;;
16101;SDS011;56411;52.964;10.540;2023-12-28T04:06:17;8.27;;;3.50;;
16101;SDS011;56411;52.964;10.540;2023-12-28T04:08:44;10.57;;;3.60;;
16101;SDS011;56411;52.964;10.540;2023-12-28T04:11:11;7.90;;;3.57;;
16101;SDS011;56411;52.964;10.540;2023-12-28T04:13:38;7.47;;;3.77;;
16101;SDS011;56411;52.964;10.540;2023-12-28T04:16:05;9.67;;;3.73;;
16101;SDS011;56411;52.964;10.540;2023-12-28T04:18:34;8.43;;;3.90;;
16101;SDS011;56411;52.964;10.540;2023-12-28T04:21:01;8.83;;;4.00;;
16101;SDS011;56411;52.964;10.540;2023-12-28T04:23:30;8.57;;;3.93;;
16101;SDS011;56411;52.964;10.540;2023-12-28T04:25:58;9.93;;;3.77;;
16101;SDS011;56411;52.964;10.540;2023-12-28T04:28:25;10.90;;;4.37;;
16101;SDS011;56411;52.964;10.540;2023-12-28T04:30:52;8.17;;;4.03;;
16101;SDS011;56411;52.964;10.540;2023-12-28T04:33:19;8.57;;;3.93;;
16101;SDS011;56411;52.964;10.540;2023-12-28T04:35:46;9.70;;;4.10;;
16101;SDS011;56411;52.964;10.540;2023-12-28T04:38:13;7.63;;;3.87;;
16101;SDS011;56411;52.964;10.540;2023-12-28T04:40:41;13.70;;;4.00;;
16101;SDS011;56411;52.964;10.540;2023-12-28T04:43:08;7.93;;;3.60;;
16101;SDS011;56411;52.964;10.540;2023-12-28T04:45:35;10.27;;;4.00;;
16101;SDS011;56411;52.964;10.540;2023-12-28T04:48:03;9.73;;;3.80;;
16101;SDS011;56411;52.964;10.540;2023-12-28T04:50:30;8.03;;;3.60;;
16101;SDS011;56411;52.964;10.540;2023-12-28T04:52:57;9.93;;;3.60;;
16101;SDS011;56411;52.964;10.540;2023-12-28T04:55:24;8.40;;;3.67;;
16101;SDS011;56411;52.964;10.540;2023-12-28T04:57:53;9.27;;;3.70;;
16101;SDS011;56411;52.964;10.540;2023-12-28T05:00:19;7.67;;;3.47;;
16101;SDS011;56411;52.964;10.540;2023-12-28T05:02:47;7.80;;;3.47;;
16101;SDS011;56411;52.964;10.540;2023-12-28T05:05:14;8.40;;;3.60;;
16101;SDS011;56411;52.964;10.540;2023-12-28T05:07:41;8.70;;;3.50;;
16101;SDS011;56411;52.964;10.540;2023-12-28T05:10:08;7.13;;;3.50;;
16101;SDS011;56411;52.964;10.540;2023-12-28T05:12:35;8.07;;;3.57;;
16101;SDS011;56411;52.964;10.540;2023-12-28T05:15:04;9.07;;;3.77;;
16101;SDS011;56411;52.964;10.540;2023-12-28T05:17:31;7.67;;;3.87;;
16101;SDS011;56411;52.964;10.540;2023-12-28T05:19:58;10.03;;;3.80;;
16101;SDS011;56411;52.964;10.540;2023-12-28T05:22:25;9.43;;;3.90;;
16101;SDS011;56411;52.964;10.540;2023-12-28T05:24:52;8.63;;;3.63;;
16101;SDS011;56411;52.964;10.540;2023-12-28T05:27:19;7.33;;;3.50;;
16101;SDS011;56411;52.964;10.540;2023-12-28T05:29:46;8.83;;;3.50;;
16101;SDS011;56411;52.964;10.540;2023-12-28T05:32:15;8.10;;;3.60;;
16101;SDS011;56411;52.964;10.540;2023-12-28T05:34:42;6.97;;;3.70;;
16101;SDS011;56411;52.964;10.540;2023-12-28T05:37:09;9.07;;;3.93;;
16101;SDS011;56411;52.964;10.540;2023-12-28T05:39:36;8.37;;;3.50;;
16101;SDS011;56411;52.964;10.540;2023-12-28T05:42:03;8.50;;;3.50;;
16101;SDS011;56411;52.964;10.540;2023-12-28T05:44:31;8.20;;;3.40;;
16101;SDS011;56411;52.964;10.540;2023-12-28T05:46:58;7.40;;;3.40;;
16101;SDS011;56411;52.964;10.540;2023-12-28T05:49:27;8.97;;;3.63;;
16101;SDS011;56411;52.964;10.540;2023-12-28T05:51:55;8.77;;;3.50;;
16101;SDS011;56411;52.964;10.540;2023-12-28T05:54:22;6.90;;;3.40;;
16101;SDS011;56411;52.964;10.540;2023-12-28T05:56:51;10.47;;;3.77;;
16101;SDS011;56411;52.964;10.540;2023-12-28T05:59:18;7.43;;;3.60;;
16101;SDS011;56411;52.964;10.540;2023-12-28T06:01:46;9.20;;;3.63;;
16101;SDS011;56411;52.964;10.540;2023-12-28T06:04:13;8.87;;;3.67;;
16101;SDS011;56411;52.964;10.540;2023-12-28T06:06:42;8.17;;;3.33;;
16101;SDS011;56411;52.964;10.540;2023-12-28T06:09:09;10.60;;;3.50;;
16101;SDS011;56411;52.964;10.540;2023-12-28T06:11:37;8.47;;;3.50;;
16101;SDS011;56411;52.964;10.540;2023-12-28T06:14:04;7.43;;;3.10;;
16101;SDS011;56411;52.964;10.540;2023-12-28T06:16:31;8.40;;;3.40;;
16101;SDS011;56411;52.964;10.540;2023-12-28T06:18:58;9.20;;;3.30;;
16101;SDS011;56411;52.964;10.540;2023-12-28T06:21:26;9.90;;;3.37;;
16101;SDS011;56411;52.964;10.540;2023-12-28T06:23:56;10.77;;;3.37;;
16101;SDS011;56411;52.964;10.540;2023-12-28T06:26:23;7.93;;;3.40;;
16101;SDS011;56411;52.964;10.540;2023-12-28T06:28:50;7.20;;;3.30;;
16101;SDS011;56411;52.964;10.540;2023-12-28T06:31:17;6.67;;;3.10;;
16101;SDS011;56411;52.964;10.540;2023-12-28T06:33:44;8.63;;;3.20;;
16101;SDS011;56411;52.964;10.540;2023-12-28T06:36:11;8.93;;;3.40;;
16101;SDS011;56411;52.964;10.540;2023-12-28T06:38:38;8.87;;;3.40;;
16101;SDS011;56411;52.964;10.540;2023-12-28T06:41:13;13.37;;;4.07;;
16101;SDS011;56411;52.964;10.540;2023-12-28T06:43:40;8.60;;;3.33;;
16101;SDS011;56411;52.964;10.540;2023-12-28T06:46:07;11.43;;;3.47;;
16101;SDS011;56411;52.964;10.540;2023-12-28T06:48:34;8.30;;;3.27;;
16101;SDS011;56411;52.964;10.540;2023-12-28T06:51:01;8.67;;;3.53;;
16101;SDS011;56411;52.964;10.540;2023-12-28T06:53:28;10.23;;;3.50;;
16101;SDS011;56411;52.964;10.540;2023-12-28T06:55:55;10.13;;;3.70;;
16101;SDS011;56411;52.964;10.540;2023-12-28T06:58:24;7.17;;;3.47;;
16101;SDS011;56411;52.964;10.540;2023-12-28T07:00:50;7.73;;;3.07;;
16101;SDS011;56411;52.964;10.540;2023-12-28T07:03:18;8.20;;;3.10;;
16101;SDS011;56411;52.964;10.540;2023-12-28T07:05:44;6.00;;;2.93;;
16101;SDS011;56411;52.964;10.540;2023-12-28T07:08:11;7.73;;;3.40;;
16101;SDS011;56411;52.964;10.540;2023-12-28T07:10:39;8.97;;;2.97;;
16101;SDS011;56411;52.964;10.540;2023-12-28T07:13:06;9.00;;;3.20;;
16101;SDS011;56411;52.964;10.540;2023-12-28T07:15:35;7.30;;;3.13;;
16101;SDS011;56411;52.964;10.540;2023-12-28T07:18:02;8.60;;;3.70;;
16101;SDS011;56411;52.964;10.540;2023-12-28T07:20:29;6.97;;;2.97;;
16101;SDS011;56411;52.964;10.540;2023-12-28T07:22:56;7.10;;;3.57;;
16101;SDS011;56411;52.964;10.540;2023-12-28T07:25:23;9.93;;;5.10;;
16101;SDS011;56411;52.964;10.540;2023-12-28T07:27:51;9.50;;;3.40;;
16101;SDS011;56411;52.964;10.540;2023-12-28T07:30:18;9.30;;;3.23;;
16101;SDS011;56411;52.964;10.540;2023-12-28T07:32:47;8.47;;;3.10;;
16101;SDS011;56411;52.964;10.540;2023-12-28T07:35:14;8.80;;;3.20;;
16101;SDS011;56411;52.964;10.540;2023-12-28T07:37:41;8.83;;;3.40;;
16101;SDS011;56411;52.964;10.540;2023-12-28T07:40:08;9.33;;;3.20;;
16101;SDS011;56411;52.964;10.540;2023-12-28T07:42:36;7.13;;;3.27;;
16101;SDS011;56411;52.964;10.540;2023-12-28T07:45:03;8.50;;;3.23;;
16101;SDS011;56411;52.964;10.540;2023-12-28T07:47:30;8.90;;;2.97;;
16101;SDS011;56411;52.964;10.540;2023-12-28T07:50:00;7.53;;;3.10;;
16101;SDS011;56411;52.964;10.540;2023-12-28T07:52:27;11.67;;;3.30;;
16101;SDS011;56411;52.964;10.540;2023-12-28T07:54:54;7.80;;;3.20;;
16101;SDS011;56411;52.964;10.540;2023-12-28T07:57:21;7.20;;;3.00;;
16101;SDS011;56411;52.964;10.540;2023-12-28T07:59:49;7.70;;;3.27;;
16101;SDS011;56411;52.964;10.540;2023-12-28T08:02:16;7.37;;;2.90;;
16101;SDS011;56411;52.964;10.540;2023-12-28T08:04:42;9.43;;;3.00;;
16101;SDS011;56411;52.964;10.540;2023-12-28T08:07:11;10.10;;;3.50;;
16101;SDS011;56411;52.964;10.540;2023-12-28T08:09:38;11.10;;;3.30;;
16101;SDS011;56411;52.964;10.540;2023-12-28T08:12:05;6.93;;;2.83;;
16101;SDS011;56411;52.964;10.540;2023-12-28T08:14:32;9.10;;;3.13;;
16101;SDS011;56411;52.964;10.540;2023-12-28T08:16:59;8.13;;;3.10;;
16101;SDS011;56411;52.964;10.540;2023-12-28T08:19:26;10.77;;;3.13;;
16101;SDS011;56411;52.964;10.540;2023-12-28T08:21:53;8.73;;;2.80;;
16101;SDS011;56411;52.964;10.540;2023-12-28T08:24:21;7.07;;;2.90;;
16101;SDS011;56411;52.964;10.540;2023-12-28T08:26:48;7.23;;;2.80;;
16101;SDS011;56411;52.964;10.540;2023-12-28T08:29:15;10.03;;;3.10;;
16101;SDS011;56411;52.964;10.540;2023-12-28T08:31:43;7.50;;;2.57;;
16101;SDS011;56411;52.964;10.540;2023-12-28T08:34:10;9.70;;;3.03;;
16101;SDS011;56411;52.964;10.540;2023-12-28T08:36:37;8.73;;;2.93;;
16101;SDS011;56411;52.964;10.540;2023-12-28T08:39:04;7.70;;;2.80;;
16101;SDS011;56411;52.964;10.540;2023-12-28T08:41:32;10.67;;;2.80;;
16101;SDS011;56411;52.964;10.540;2023-12-28T08:43:59;6.40;;;2.77;;
16101;SDS011;56411;52.964;10.540;2023-12-28T08:46:26;9.27;;;3.00;;
16101;SDS011;56411;52.964;10.540;2023-12-28T08:48:54;7.10;;;2.73;;
16101;SDS011;56411;52.964;10.540;2023-12-28T08:51:24;8.43;;;2.80;;
16101;SDS011;56411;52.964;10.540;2023-12-28T08:53:51;8.70;;;2.83;;
16101;SDS011;56411;52.964;10.540;2023-12-28T08:56:21;7.40;;;2.83;;
16101;SDS011;56411;52.964;10.540;2023-12-28T08:58:50;4.93;;;2.40;;
16101;SDS011;56411;52.964;10.540;2023-12-28T09:01:19;6.33;;;2.50;;
16101;SDS011;56411;52.964;10.540;2023-12-28T09:03:47;7.22;;;2.55;;
16101;SDS011;56411;52.964;10.540;2023-12-28T09:06:15;10.20;;;2.90;;
16101;SDS011;56411;52.964;10.540;2023-12-28T09:08:43;10.03;;;2.70;;
16101;SDS011;56411;52.964;10.540;2023-12-28T09:11:10;10.03;;;2.77;;
16101;SDS011;56411;52.964;10.540;2023-12-28T09:13:38;7.27;;;2.47;;
16101;SDS011;56411;52.964;10.540;2023-12-28T09:16:07;8.33;;;2.77;;
16101;SDS011;56411;52.964;10.540;2023-12-28T09:18:36;8.27;;;2.53;;
16101;SDS011;56411;52.964;10.540;2023-12-28T09:21:04;8.00;;;2.63;;
16101;SDS011;56411;52.964;10.540;2023-12-28T09:23:32;10.50;;;2.67;;
16101;SDS011;56411;52.964;10.540;2023-12-28T09:26:00;8.60;;;2.70;;
16101;SDS011;56411;52.964;10.540;2023-12-28T09:28:29;8.82;;;2.67;;
16101;SDS011;56411;52.964;10.540;2023-12-28T09:30:56;6.80;;;2.27;;
16101;SDS011;56411;52.964;10.540;2023-12-28T09:33:24;7.20;;;2.90;;
16101;SDS011;56411;52.964;10.540;2023-12-28T09:35:51;7.43;;;2.43;;
16101;SDS011;56411;52.964;10.540;2023-12-28T09:38:19;10.57;;;2.75;;
16101;SDS011;56411;52.964;10.540;2023-12-28T09:40:46;7.13;;;2.60;;
16101;SDS011;56411;52.964;10.540;2023-12-28T09:43:19;6.60;;;2.63;;
16101;SDS011;56411;52.964;10.540;2023-12-28T09:45:50;9.10;;;3.10;;
16101;SDS011;56411;52.964;10.540;2023-12-28T09:48:18;8.37;;;2.57;;
16101;SDS011;56411;52.964;10.540;2023-12-28T09:50:50;9.23;;;2.50;;
16101;SDS011;56411;52.964;10.540;2023-12-28T09:53:19;7.63;;;2.67;;
16101;SDS011;56411;52.964;10.540;2023-12-28T09:55:48;7.27;;;2.57;;
16101;SDS011;56411;52.964;10.540;2023-12-28T09:58:16;9.13;;;2.53;;
16101;SDS011;56411;52.964;10.540;2023-12-28T10:00:45;7.70;;;2.67;;
16101;SDS011;56411;52.964;10.540;2023-12-28T10:03:13;7.47;;;2.67;;
16101;SDS011;56411;52.964;10.540;2023-12-28T10:05:41;9.25;;;2.60;;
16101;SDS011;56411;52.964;10.540;2023-12-28T10:08:10;7.43;;;2.27;;
16101;SDS011;56411;52.964;10.540;2023-12-28T10:10:38;9.40;;;2.63;;
16101;SDS011;56411;52.964;10.540;2023-12-28T10:13:06;8.95;;;2.63;;
16101;SDS011;56411;52.964;10.540;2023-12-28T10:15:34;10.50;;;2.67;;
16101;SDS011;56411;52.964;10.540;2023-12-28T10:18:02;6.80;;;2.40;;
16101;SDS011;56411;52.964;10.540;2023-12-28T10:20:30;4.40;;;2.23;;
16101;SDS011;56411;52.964;10.540;2023-12-28T10:22:58;7.33;;;2.40;;
16101;SDS011;56411;52.964;10.540;2023-12-28T10:25:27;8.97;;;2.63;;
16101;SDS011;56411;52.964;10.540;2023-12-28T10:27:55;9.87;;;2.50;;
16101;SDS011;56411;52.964;10.540;2023-12-28T10:30:22;8.97;;;2.60;;
16101;SDS011;56411;52.964;10.540;2023-12-28T10:32:49;6.93;;;2.57;;
16101;SDS011;56411;52.964;10.540;2023-12-28T10:35:17;10.37;;;2.60;;
16101;SDS011;56411;52.964;10.540;2023-12-28T10:37:44;8.15;;;2.70;;
16101;SDS011;56411;52.964;10.540;2023-12-28T10:40:12;8.50;;;2.50;;
16101;SDS011;56411;52.964;10.540;2023-12-28T10:42:45;8.67;;;2.70;;
16101;SDS011;56411;52.964;10.540;2023-12-28T10:45:18;8.77;;;2.70;;
16101;SDS011;56411;52.964;10.540;2023-12-28T10:47:51;9.25;;;2.53;;
16101;SDS011;56411;52.964;10.540;2023-12-28T10:50:23;10.67;;;2.80;;
16101;SDS011;56411;52.964;10.540;2023-12-28T10:52:56;7.47;;;2.50;;
16101;SDS011;56411;52.964;10.540;2023-12-28T10:55:39;8.25;;;2.50;;
16101;SDS011;56411;52.964;10.540;2023-12-28T10:58:17;8.00;;;2.35;;
16101;SDS011;56411;52.964;10.540;2023-12-28T11:00:49;8.95;;;2.80;;
16101;SDS011;56411;52.964;10.540;2023-12-28T11:03:23;11.03;;;3.03;;
16101;SDS011;56411;52.964;10.540;2023-12-28T11:05:54;8.05;;;2.55;;
16101;SDS011;56411;52.964;10.540;2023-12-28T11:08:22;10.70;;;2.93;;
16101;SDS011;56411;52.964;10.540;2023-12-28T11:10:50;9.80;;;2.90;;
16101;SDS011;56411;52.964;10.540;2023-12-28T11:13:20;7.70;;;2.70;;
16101;SDS011;56411;52.964;10.540;2023-12-28T11:15:47;9.88;;;2.55;;
16101;SDS011;56411;52.964;10.540;2023-12-28T11:18:16;9.30;;;2.80;;
16101;SDS011;56411;52.964;10.540;2023-12-28T11:20:46;8.53;;;2.70;;
16101;SDS011;56411;52.964;10.540;2023-12-28T11:23:14;9.30;;;2.83;;
16101;SDS011;56411;52.964;10.540;2023-12-28T11:25:41;10.23;;;2.80;;
16101;SDS011;56411;52.964;10.540;2023-12-28T11:28:09;9.30;;;2.80;;
16101;SDS011;56411;52.964;10.540;2023-12-28T11:30:38;10.13;;;3.00;;
16101;SDS011;56411;52.964;10.540;2023-12-28T11:33:07;13.85;;;3.03;;
16101;SDS011;56411;52.964;10.540;2023-12-28T11:35:36;12.18;;;3.35;;
16101;SDS011;56411;52.964;10.540;2023-12-28T11:38:06;12.23;;;3.10;;
16101;SDS011;56411;52.964;10.540;2023-12-28T11:40:41;11.87;;;2.80;;
16101;SDS011;56411;52.964;10.540;2023-12-28T11:43:14;11.15;;;3.13;;
16101;SDS011;56411;52.964;10.540;2023-12-28T11:45:49;11.70;;;2.97;;
16101;SDS011;56411;52.964;10.540;2023-12-28T11:48:23;12.33;;;3.00;;
16101;SDS011;56411;52.964;10.540;2023-12-28T11:50:53;11.37;;;3.33;;
16101;SDS011;56411;52.964;10.540;2023-12-28T11:53:22;10.77;;;2.87;;
16101;SDS011;56411;52.964;10.540;2023-12-28T11:55:51;12.27;;;2.92;;
16101;SDS011;56411;52.964;10.540;2023-12-28T11:58:25;12.32;;;3.22;;
16101;SDS011;56411;52.964;10.540;2023-12-28T12:00:54;10.93;;;3.03;;
16101;SDS011;56411;52.964;10.540;2023-12-28T12:03:24;10.13;;;2.93;;
16101;SDS011;56411;52.964;10.540;2023-12-28T12:05:51;12.48;;;2.80;;
16101;SDS011;56411;52.964;10.540;2023-12-28T12:08:19;11.10;;;2.80;;
16101;SDS011;56411;52.964;10.540;2023-12-28T12:10:46;11.25;;;2.78;;
16101;SDS011;56411;52.964;10.540;2023-12-28T12:13:13;12.23;;;2.90;;
16101;SDS011;56411;52.964;10.540;2023-12-28T12:15:41;10.40;;;2.70;;
16101;SDS011;56411;52.964;10.540;2023-12-28T12:18:10;9.50;;;2.90;;
16101;SDS011;56411;52.964;10.540;2023-12-28T12:20:37;9.90;;;2.70;;
16101;SDS011;56411;52.964;10.540;2023-12-28T12:23:05;11.25;;;3.00;;
16101;SDS011;56411;52.964;10.540;2023-12-28T12:25:32;11.07;;;2.80;;
16101;SDS011;56411;52.964;10.540;2023-12-28T12:27:59;9.53;;;2.87;;
16101;SDS011;56411;52.964;10.540;2023-12-28T12:30:26;11.07;;;2.83;;
16101;SDS011;56411;52.964;10.540;2023-12-28T12:32:53;10.23;;;2.73;;
16101;SDS011;56411;52.964;10.540;2023-12-28T12:35:22;11.17;;;2.80;;
16101;SDS011;56411;52.964;10.540;2023-12-28T12:37:49;11.50;;;2.80;;
16101;SDS011;56411;52.964;10.540;2023-12-28T12:40:17;13.87;;;3.07;;
16101;SDS011;56411;52.964;10.540;2023-12-28T12:42:51;11.35;;;2.92;;
16101;SDS011;56411;52.964;10.540;2023-12-28T12:45:19;10.77;;;3.30;;
16101;SDS011;56411;52.964;10.540;2023-12-28T12:47:47;12.45;;;3.10;;
16101;SDS011;56411;52.964;10.540;2023-12-28T12:50:15;10.40;;;2.97;;
16101;SDS011;56411;52.964;10.540;2023-12-28T12:52:44;9.53;;;3.20;;
16101;SDS011;56411;52.964;10.540;2023-12-28T12:55:19;13.53;;;3.07;;
16101;SDS011;56411;52.964;10.540;2023-12-28T12:57:47;11.93;;;3.00;;
16101;SDS011;56411;52.964;10.540;2023-12-28T13:00:15;14.00;;;3.28;;
16101;SDS011;56411;52.964;10.540;2023-12-28T13:02:44;11.63;;;2.90;;
16101;SDS011;56411;52.964;10.540;2023-12-28T13:05:11;11.18;;;3.33;;
16101;SDS011;56411;52.964;10.540;2023-12-28T13:07:38;12.30;;;3.08;;
16101;SDS011;56411;52.964;10.540;2023-12-28T13:10:07;11.18;;;3.10;;
16101;SDS011;56411;52.964;10.540;2023-12-28T13:12:35;13.63;;;3.17;;
16101;SDS011;56411;52.964;10.540;2023-12-28T13:15:03;13.20;;;3.13;;
16101;SDS011;56411;52.964;10.540;2023-12-28T13:17:31;9.17;;;2.67;;
16101;SDS011;56411;52.964;10.540;2023-12-28T13:19:59;15.37;;;3.00;;
16101;SDS011;56411;52.964;10.540;2023-12-28T13:22:26;12.13;;;3.13;;
16101;SDS011;56411;52.964;10.540;2023-12-28T13:24:54;11.13;;;3.20;;
16101;SDS011;56411;52.964;10.540;2023-12-28T13:27:22;10.90;;;3.20;;
16101;SDS011;56411;52.964;10.540;2023-12-28T13:29:49;9.03;;;2.87;;
16101;SDS011;56411;52.964;10.540;2023-12-28T13:32:16;11.87;;;2.80;;
16101;SDS011;56411;52.964;10.540;2023-12-28T13:34:43;11.33;;;3.10;;
16101;SDS011;56411;52.964;10.540;2023-12-28T13:37:11;9.23;;;3.00;;
16101;SDS011;56411;52.964;10.540;2023-12-28T13:39:38;11.10;;;3.33;;
16101;SDS011;56411;52.964;10.540;2023-12-28T13:42:05;11.35;;;3.30;;
16101;SDS011;56411;52.964;10.540;2023-12-28T13:44:34;9.70;;;3.03;;
16101;SDS011;56411;52.964;10.540;2023-12-28T13:47:02;10.07;;;3.13;;
16101;SDS011;56411;52.964;10.540;2023-12-28T13:49:30;11.90;;;3.00;;
16101;SDS011;56411;52.964;10.540;2023-12-28T13:51:58;13.03;;;3.40;;
16101;SDS011;56411;52.964;10.540;2023-12-28T13:54:25;13.10;;;3.50;;
16101;SDS011;56411;52.964;10.540;2023-12-28T13:56:53;11.20;;;3.10;;
16101;SDS011;56411;52.964;10.540;2023-12-28T13:59:24;9.30;;;2.75;;
16101;SDS011;56411;52.964;10.540;2023-12-28T14:01:52;11.77;;;3.00;;
16101;SDS011;56411;52.964;10.540;2023-12-28T14:04:22;19.13;;;5.70;;
16101;SDS011;56411;52.964;10.540;2023-12-28T14:06:49;42.33;;;16.67;;
16101;SDS011;56411;52.964;10.540;2023-12-28T14:09:16;44.37;;;16.97;;
16101;SDS011;56411;52.964;10.540;2023-12-28T14:11:45;10.32;;;3.65;;
16101;SDS011;56411;52.964;10.540;2023-12-28T14:14:13;13.57;;;3.50;;
16101;SDS011;56411;52.964;10.540;2023-12-28T14:16:40;14.07;;;3.60;;
16101;SDS011;56411;52.964;10.540;2023-12-28T14:19:09;13.80;;;3.33;;
16101;SDS011;56411;52.964;10.540;2023-12-28T14:21:36;12.83;;;3.20;;
16101;SDS011;56411;52.964;10.540;2023-12-28T14:24:04;11.57;;;3.13;;
16101;SDS011;56411;52.964;10.540;2023-12-28T14:26:32;12.57;;;3.77;;
16101;SDS011;56411;52.964;10.540;2023-12-28T14:29:00;14.23;;;3.35;;
16101;SDS011;56411;52.964;10.540;2023-12-28T14:31:30;16.37;;;3.43;;
16101;SDS011;56411;52.964;10.540;2023-12-28T14:33:58;12.23;;;3.20;;
16101;SDS011;56411;52.964;10.540;2023-12-28T14:36:29;9.00;;;2.80;;